Terminal Aerodrome Forecast
Issued by NWS

Home | Current Version | Previous Version | Graphics & Text | Print | Product List | Glossary On
Versions: 1 2 3 4 5 6 7 8 9 10 11 12 13 14 15 16
000
FTUS43 KMPX 211100
TAFAXN
TAF
KAXN 211131Z 2112/2212 32009KT P6SM FEW100
     FM211500 32018G25KT P6SM SCT020
      TEMPO 2115/2117 BKN025
     FM220100 34010KT P6SM SKC
     FM220600 36004KT P6SM BKN200=

USA.gov is the U.S. government's official web portal to all federal, state and local government web resources and services.